Terminal Aerodrome Forecast
Issued by NWS Albany, NY

Home | Current Version | Previous Version | Text Only | Print | Product List | Glossary On
Versions: 1 2 3 4 5 6 7 8 9 10 11 12 13 14 15 16 17 18 19 20 21 22 23 24
000
FTUS41 KALY 260500
TAFPOU
TAF
KPOU 260539Z 2606/2706 VRB02KT P6SM SCT090 BKN130 OVC200
     FM260900 36003KT P6SM VCSH SCT030 OVC080
      TEMPO 2611/2612 2SM -SN BR OVC020
     FM261200 36003KT 2SM -SN BR OVC015
     FM261400 01006KT 3/4SM -SN BR VV007
     FM261600 01008KT 1/2SM SN FG VV003
     FM270100 34010KT 2SM -SN BR OVC008
     FM270500 33007KT P6SM OVC020=

USA.gov is the U.S. government's official web portal to all federal, state and local government web resources and services.